ENOV/HOV METAR and TAF weather

Enter ICAO airport designator
Station Type Date Time Source
ENOV METAR 2022/12/05 13:20 UTC NOAA

ENOV 051320Z 00000KT 6000 -SHRA SCT005 BKN018 01/M00 Q1027 RMK WIND RWY24 23002KT WIND 2090FT 27006KT


Station Type Date Time Source
ENOV Decoded METAR 2022/12/05 13:20 UTC NOAA

Orsta-Volda / Hovden, Norway (ENOV) 62-11N 006-04E 74M
Dec 05, 2022 - 08:20 AM EST / 2022.12.05 1320 UTC
Wind: Calm:0
Visibility: 3 mile(s):0
Sky conditions: mostly cloudy
Weather: light rain showers
Temperature: 33 F (1 C)
Dew Point: 32 F (0 C)
Relative Humidity: 93%
Pressure (altimeter): 30.33 in. Hg (1027 hPa)
ob: ENOV 051320Z 00000KT 6000 -SHRA SCT005 BKN018 01/M00 Q1027 RMK WIND RWY24 23002KT WIND 2090FT 27006KT
cycle: 13

Station Type Date Time Source
ENOV TAF UTC NOAA

Error!

Example: see airport list